sensor_id;sensor_type;location;lat;lon;timestamp;temperature;humidity
29093;DHT22;16167;48.768;14.984;2023-03-13T00:01:34;7.00;36.20
29093;DHT22;16167;48.768;14.984;2023-03-13T00:04:02;6.90;37.50
29093;DHT22;16167;48.768;14.984;2023-03-13T00:06:31;6.90;38.20
29093;DHT22;16167;48.768;14.984;2023-03-13T00:08:59;6.80;37.50
29093;DHT22;16167;48.768;14.984;2023-03-13T00:11:27;6.80;37.80
29093;DHT22;16167;48.768;14.984;2023-03-13T00:13:57;6.70;38.30
29093;DHT22;16167;48.768;14.984;2023-03-13T00:16:25;6.70;39.60
29093;DHT22;16167;48.768;14.984;2023-03-13T00:18:54;6.70;40.00
29093;DHT22;16167;48.768;14.984;2023-03-13T00:21:23;6.60;39.40
29093;DHT22;16167;48.768;14.984;2023-03-13T00:23:51;6.60;37.60
29093;DHT22;16167;48.768;14.984;2023-03-13T00:26:21;6.60;37.60
29093;DHT22;16167;48.768;14.984;2023-03-13T00:28:49;6.60;37.00
29093;DHT22;16167;48.768;14.984;2023-03-13T00:31:19;6.60;38.30
29093;DHT22;16167;48.768;14.984;2023-03-13T00:33:48;6.60;33.00
29093;DHT22;16167;48.768;14.984;2023-03-13T00:36:18;6.70;36.10
29093;DHT22;16167;48.768;14.984;2023-03-13T00:38:46;6.80;35.90
29093;DHT22;16167;48.768;14.984;2023-03-13T00:41:15;6.90;34.70
29093;DHT22;16167;48.768;14.984;2023-03-13T00:43:44;6.90;36.10
29093;DHT22;16167;48.768;14.984;2023-03-13T00:46:12;6.90;34.70
29093;DHT22;16167;48.768;14.984;2023-03-13T00:48:42;7.00;33.60
29093;DHT22;16167;48.768;14.984;2023-03-13T00:51:10;7.10;32.80
29093;DHT22;16167;48.768;14.984;2023-03-13T00:53:38;7.20;37.40
29093;DHT22;16167;48.768;14.984;2023-03-13T00:56:06;7.20;39.60
29093;DHT22;16167;48.768;14.984;2023-03-13T00:58:35;7.20;40.20
29093;DHT22;16167;48.768;14.984;2023-03-13T01:01:07;7.20;39.00
29093;DHT22;16167;48.768;14.984;2023-03-13T01:03:35;7.20;37.50
29093;DHT22;16167;48.768;14.984;2023-03-13T01:06:06;7.20;37.90
29093;DHT22;16167;48.768;14.984;2023-03-13T01:08:35;7.20;39.80
29093;DHT22;16167;48.768;14.984;2023-03-13T01:11:03;7.20;38.30
29093;DHT22;16167;48.768;14.984;2023-03-13T01:13:33;7.30;39.20
29093;DHT22;16167;48.768;14.984;2023-03-13T01:16:01;7.30;40.50
29093;DHT22;16167;48.768;14.984;2023-03-13T01:18:29;7.30;41.30
29093;DHT22;16167;48.768;14.984;2023-03-13T01:20:57;7.20;42.70
29093;DHT22;16167;48.768;14.984;2023-03-13T01:23:26;7.10;43.60
29093;DHT22;16167;48.768;14.984;2023-03-13T01:25:55;7.10;41.60
29093;DHT22;16167;48.768;14.984;2023-03-13T01:28:23;7.00;42.40
29093;DHT22;16167;48.768;14.984;2023-03-13T01:30:52;6.80;36.20
29093;DHT22;16167;48.768;14.984;2023-03-13T01:33:20;6.80;35.20
29093;DHT22;16167;48.768;14.984;2023-03-13T01:35:48;6.60;37.20
29093;DHT22;16167;48.768;14.984;2023-03-13T01:38:16;6.50;33.60
29093;DHT22;16167;48.768;14.984;2023-03-13T01:40:46;6.50;35.10
29093;DHT22;16167;48.768;14.984;2023-03-13T01:43:16;6.40;29.00
29093;DHT22;16167;48.768;14.984;2023-03-13T01:45:59;6.40;29.90
29093;DHT22;16167;48.768;14.984;2023-03-13T01:48:30;6.50;30.00
29093;DHT22;16167;48.768;14.984;2023-03-13T01:50:59;6.60;31.60
29093;DHT22;16167;48.768;14.984;2023-03-13T01:53:27;6.60;30.10
29093;DHT22;16167;48.768;14.984;2023-03-13T01:55:57;6.80;31.70
29093;DHT22;16167;48.768;14.984;2023-03-13T01:58:26;6.90;33.00
29093;DHT22;16167;48.768;14.984;2023-03-13T02:00:55;6.90;34.00
29093;DHT22;16167;48.768;14.984;2023-03-13T02:03:24;6.80;35.70
29093;DHT22;16167;48.768;14.984;2023-03-13T02:05:53;6.80;36.60
29093;DHT22;16167;48.768;14.984;2023-03-13T02:08:22;6.70;36.70
29093;DHT22;16167;48.768;14.984;2023-03-13T02:10:52;6.60;36.20
29093;DHT22;16167;48.768;14.984;2023-03-13T02:13:22;6.60;36.80
29093;DHT22;16167;48.768;14.984;2023-03-13T02:15:51;6.50;35.00
29093;DHT22;16167;48.768;14.984;2023-03-13T02:18:19;6.50;35.00
29093;DHT22;16167;48.768;14.984;2023-03-13T02:20:48;6.50;35.40
29093;DHT22;16167;48.768;14.984;2023-03-13T02:23:20;6.50;36.10
29093;DHT22;16167;48.768;14.984;2023-03-13T02:25:51;6.70;35.50
29093;DHT22;16167;48.768;14.984;2023-03-13T02:28:19;6.70;35.10
29093;DHT22;16167;48.768;14.984;2023-03-13T02:30:48;6.80;36.00
29093;DHT22;16167;48.768;14.984;2023-03-13T02:33:17;6.90;36.50
29093;DHT22;16167;48.768;14.984;2023-03-13T02:35:46;6.80;36.00
29093;DHT22;16167;48.768;14.984;2023-03-13T02:38:16;6.90;36.80
29093;DHT22;16167;48.768;14.984;2023-03-13T02:40:47;6.80;36.40
29093;DHT22;16167;48.768;14.984;2023-03-13T02:43:17;6.80;35.70
29093;DHT22;16167;48.768;14.984;2023-03-13T02:46:03;6.80;36.70
29093;DHT22;16167;48.768;14.984;2023-03-13T02:48:31;6.80;37.70
29093;DHT22;16167;48.768;14.984;2023-03-13T02:51:01;6.90;37.60
29093;DHT22;16167;48.768;14.984;2023-03-13T02:53:30;6.80;37.70
29093;DHT22;16167;48.768;14.984;2023-03-13T02:55:58;6.80;37.20
29093;DHT22;16167;48.768;14.984;2023-03-13T02:58:30;6.80;37.30
29093;DHT22;16167;48.768;14.984;2023-03-13T03:01:14;6.60;37.90
29093;DHT22;16167;48.768;14.984;2023-03-13T03:03:42;6.60;38.00
29093;DHT22;16167;48.768;14.984;2023-03-13T03:06:10;6.50;36.60
29093;DHT22;16167;48.768;14.984;2023-03-13T03:08:38;6.50;36.70
29093;DHT22;16167;48.768;14.984;2023-03-13T03:11:09;6.50;34.90
29093;DHT22;16167;48.768;14.984;2023-03-13T03:13:38;6.50;34.00
29093;DHT22;16167;48.768;14.984;2023-03-13T03:16:06;6.50;34.00
29093;DHT22;16167;48.768;14.984;2023-03-13T03:18:35;6.60;33.90
29093;DHT22;16167;48.768;14.984;2023-03-13T03:21:03;6.60;34.00
29093;DHT22;16167;48.768;14.984;2023-03-13T03:23:32;6.70;34.00
29093;DHT22;16167;48.768;14.984;2023-03-13T03:26:00;6.70;33.30
29093;DHT22;16167;48.768;14.984;2023-03-13T03:28:28;6.80;31.60
29093;DHT22;16167;48.768;14.984;2023-03-13T03:30:59;6.80;33.40
29093;DHT22;16167;48.768;14.984;2023-03-13T03:33:30;6.80;33.90
29093;DHT22;16167;48.768;14.984;2023-03-13T03:35:58;6.60;33.40
29093;DHT22;16167;48.768;14.984;2023-03-13T03:38:26;6.50;34.10
29093;DHT22;16167;48.768;14.984;2023-03-13T03:40:54;6.40;34.50
29093;DHT22;16167;48.768;14.984;2023-03-13T03:43:22;6.30;35.70
29093;DHT22;16167;48.768;14.984;2023-03-13T03:45:50;6.20;35.40
29093;DHT22;16167;48.768;14.984;2023-03-13T03:48:19;6.10;32.00
29093;DHT22;16167;48.768;14.984;2023-03-13T03:50:47;6.10;34.40
29093;DHT22;16167;48.768;14.984;2023-03-13T03:53:15;6.00;36.90
29093;DHT22;16167;48.768;14.984;2023-03-13T03:55:43;6.00;38.70
29093;DHT22;16167;48.768;14.984;2023-03-13T03:58:11;5.90;40.30
29093;DHT22;16167;48.768;14.984;2023-03-13T04:00:39;5.80;40.50
29093;DHT22;16167;48.768;14.984;2023-03-13T04:03:09;5.80;43.50
29093;DHT22;16167;48.768;14.984;2023-03-13T04:05:39;5.70;40.40
29093;DHT22;16167;48.768;14.984;2023-03-13T04:08:07;5.70;43.80
29093;DHT22;16167;48.768;14.984;2023-03-13T04:10:35;5.80;46.10
29093;DHT22;16167;48.768;14.984;2023-03-13T04:13:03;5.80;42.40
29093;DHT22;16167;48.768;14.984;2023-03-13T04:15:31;5.90;42.60
29093;DHT22;16167;48.768;14.984;2023-03-13T04:17:58;5.90;40.60
29093;DHT22;16167;48.768;14.984;2023-03-13T04:20:26;6.00;39.50
29093;DHT22;16167;48.768;14.984;2023-03-13T04:22:56;5.90;39.70
29093;DHT22;16167;48.768;14.984;2023-03-13T04:25:24;5.80;42.30
29093;DHT22;16167;48.768;14.984;2023-03-13T04:27:52;5.80;42.70
29093;DHT22;16167;48.768;14.984;2023-03-13T04:30:20;5.70;44.80
29093;DHT22;16167;48.768;14.984;2023-03-13T04:32:48;5.70;45.00
29093;DHT22;16167;48.768;14.984;2023-03-13T04:35:16;5.60;48.40
29093;DHT22;16167;48.768;14.984;2023-03-13T04:37:44;5.60;48.90
29093;DHT22;16167;48.768;14.984;2023-03-13T04:40:14;5.50;49.00
29093;DHT22;16167;48.768;14.984;2023-03-13T04:42:42;5.40;50.20
29093;DHT22;16167;48.768;14.984;2023-03-13T04:45:10;5.40;53.80
29093;DHT22;16167;48.768;14.984;2023-03-13T04:47:38;5.30;51.00
29093;DHT22;16167;48.768;14.984;2023-03-13T04:50:06;5.30;54.90
29093;DHT22;16167;48.768;14.984;2023-03-13T04:52:34;5.20;54.10
29093;DHT22;16167;48.768;14.984;2023-03-13T04:55:02;5.20;54.80
29093;DHT22;16167;48.768;14.984;2023-03-13T04:57:31;5.10;56.00
29093;DHT22;16167;48.768;14.984;2023-03-13T04:59:59;5.10;53.80
29093;DHT22;16167;48.768;14.984;2023-03-13T05:02:27;5.00;53.30
29093;DHT22;16167;48.768;14.984;2023-03-13T05:04:55;5.00;58.70
29093;DHT22;16167;48.768;14.984;2023-03-13T05:07:23;4.90;56.50
29093;DHT22;16167;48.768;14.984;2023-03-13T05:09:51;4.90;55.00
29093;DHT22;16167;48.768;14.984;2023-03-13T05:12:19;4.90;56.00
29093;DHT22;16167;48.768;14.984;2023-03-13T05:14:48;4.80;59.60
29093;DHT22;16167;48.768;14.984;2023-03-13T05:17:16;4.90;59.90
29093;DHT22;16167;48.768;14.984;2023-03-13T05:19:44;4.90;61.10
29093;DHT22;16167;48.768;14.984;2023-03-13T05:22:12;4.90;62.10
29093;DHT22;16167;48.768;14.984;2023-03-13T05:24:40;4.90;65.10
29093;DHT22;16167;48.768;14.984;2023-03-13T05:27:07;4.90;67.00
29093;DHT22;16167;48.768;14.984;2023-03-13T05:29:35;5.00;63.10
29093;DHT22;16167;48.768;14.984;2023-03-13T05:32:05;5.00;67.40
29093;DHT22;16167;48.768;14.984;2023-03-13T05:34:33;5.00;65.40
29093;DHT22;16167;48.768;14.984;2023-03-13T05:37:01;5.10;66.60
29093;DHT22;16167;48.768;14.984;2023-03-13T05:39:29;5.20;62.50
29093;DHT22;16167;48.768;14.984;2023-03-13T05:41:57;5.20;57.30
29093;DHT22;16167;48.768;14.984;2023-03-13T05:44:24;5.30;56.00
29093;DHT22;16167;48.768;14.984;2023-03-13T05:46:52;5.40;52.40
29093;DHT22;16167;48.768;14.984;2023-03-13T05:49:21;5.50;52.70
29093;DHT22;16167;48.768;14.984;2023-03-13T05:51:49;5.50;51.90
29093;DHT22;16167;48.768;14.984;2023-03-13T05:54:17;5.60;51.30
29093;DHT22;16167;48.768;14.984;2023-03-13T05:56:45;5.70;50.30
29093;DHT22;16167;48.768;14.984;2023-03-13T05:59:14;5.70;48.10
29093;DHT22;16167;48.768;14.984;2023-03-13T06:01:42;5.80;47.60
29093;DHT22;16167;48.768;14.984;2023-03-13T06:04:10;5.90;45.60
29093;DHT22;16167;48.768;14.984;2023-03-13T06:06:39;6.00;45.50
29093;DHT22;16167;48.768;14.984;2023-03-13T06:09:07;6.00;42.10
29093;DHT22;16167;48.768;14.984;2023-03-13T06:11:37;6.10;41.70
29093;DHT22;16167;48.768;14.984;2023-03-13T06:14:05;6.10;39.60
29093;DHT22;16167;48.768;14.984;2023-03-13T06:16:33;6.20;38.70
29093;DHT22;16167;48.768;14.984;2023-03-13T06:19:01;6.20;36.80
29093;DHT22;16167;48.768;14.984;2023-03-13T06:21:29;6.30;35.30
29093;DHT22;16167;48.768;14.984;2023-03-13T06:23:58;6.30;34.00
29093;DHT22;16167;48.768;14.984;2023-03-13T06:26:26;6.40;32.50
29093;DHT22;16167;48.768;14.984;2023-03-13T06:28:54;6.50;29.60
29093;DHT22;16167;48.768;14.984;2023-03-13T06:31:21;6.60;28.80
29093;DHT22;16167;48.768;14.984;2023-03-13T06:33:51;6.60;29.30
29093;DHT22;16167;48.768;14.984;2023-03-13T06:36:19;6.70;26.40
29093;DHT22;16167;48.768;14.984;2023-03-13T06:38:47;6.70;26.20
29093;DHT22;16167;48.768;14.984;2023-03-13T06:41:16;6.80;26.00
29093;DHT22;16167;48.768;14.984;2023-03-13T06:43:44;6.80;26.20
29093;DHT22;16167;48.768;14.984;2023-03-13T06:46:14;6.80;26.90
29093;DHT22;16167;48.768;14.984;2023-03-13T06:48:43;6.80;27.10
29093;DHT22;16167;48.768;14.984;2023-03-13T06:51:12;6.90;27.80
29093;DHT22;16167;48.768;14.984;2023-03-13T06:53:40;6.90;26.50
29093;DHT22;16167;48.768;14.984;2023-03-13T06:56:08;6.90;25.60
29093;DHT22;16167;48.768;14.984;2023-03-13T06:58:37;6.90;25.80
29093;DHT22;16167;48.768;14.984;2023-03-13T07:01:06;6.90;25.80
29093;DHT22;16167;48.768;14.984;2023-03-13T07:03:34;7.00;25.40
29093;DHT22;16167;48.768;14.984;2023-03-13T07:06:03;7.00;25.60
29093;DHT22;16167;48.768;14.984;2023-03-13T07:08:32;7.10;24.70
29093;DHT22;16167;48.768;14.984;2023-03-13T07:11:01;7.20;26.10
29093;DHT22;16167;48.768;14.984;2023-03-13T07:13:29;7.30;23.90
29093;DHT22;16167;48.768;14.984;2023-03-13T07:16:00;7.30;25.70
29093;DHT22;16167;48.768;14.984;2023-03-13T07:18:30;7.40;25.00
29093;DHT22;16167;48.768;14.984;2023-03-13T07:20:58;7.50;26.30
29093;DHT22;16167;48.768;14.984;2023-03-13T07:23:28;7.60;28.50
29093;DHT22;16167;48.768;14.984;2023-03-13T07:25:56;7.60;27.80
29093;DHT22;16167;48.768;14.984;2023-03-13T07:28:25;7.70;33.70
29093;DHT22;16167;48.768;14.984;2023-03-13T07:30:53;7.80;32.70
29093;DHT22;16167;48.768;14.984;2023-03-13T07:33:22;7.90;32.20
29093;DHT22;16167;48.768;14.984;2023-03-13T07:35:50;8.00;33.10
29093;DHT22;16167;48.768;14.984;2023-03-13T07:38:18;8.20;38.90
29093;DHT22;16167;48.768;14.984;2023-03-13T07:40:47;8.40;39.30
29093;DHT22;16167;48.768;14.984;2023-03-13T07:43:16;8.60;50.20
29093;DHT22;16167;48.768;14.984;2023-03-13T07:45:53;8.80;56.90
29093;DHT22;16167;48.768;14.984;2023-03-13T07:48:23;9.00;56.50
29093;DHT22;16167;48.768;14.984;2023-03-13T07:50:52;9.20;56.60
29093;DHT22;16167;48.768;14.984;2023-03-13T07:53:20;9.30;69.00
29093;DHT22;16167;48.768;14.984;2023-03-13T07:55:52;9.40;71.40
29093;DHT22;16167;48.768;14.984;2023-03-13T07:58:20;9.50;72.60
29093;DHT22;16167;48.768;14.984;2023-03-13T08:00:49;9.60;71.00
29093;DHT22;16167;48.768;14.984;2023-03-13T08:03:17;9.70;74.50
29093;DHT22;16167;48.768;14.984;2023-03-13T08:05:46;9.70;77.70
29093;DHT22;16167;48.768;14.984;2023-03-13T08:08:14;9.70;70.90
29093;DHT22;16167;48.768;14.984;2023-03-13T08:10:42;9.80;76.30
29093;DHT22;16167;48.768;14.984;2023-03-13T08:13:10;9.80;81.30
29093;DHT22;16167;48.768;14.984;2023-03-13T08:15:38;9.90;83.40
29093;DHT22;16167;48.768;14.984;2023-03-13T08:18:06;9.90;80.90
29093;DHT22;16167;48.768;14.984;2023-03-13T08:20:34;9.90;79.70
29093;DHT22;16167;48.768;14.984;2023-03-13T08:23:03;9.80;79.00
29093;DHT22;16167;48.768;14.984;2023-03-13T08:25:31;9.90;82.10
29093;DHT22;16167;48.768;14.984;2023-03-13T08:27:59;9.80;78.30
29093;DHT22;16167;48.768;14.984;2023-03-13T08:30:28;9.80;76.30
29093;DHT22;16167;48.768;14.984;2023-03-13T08:32:56;9.80;74.00
29093;DHT22;16167;48.768;14.984;2023-03-13T08:35:24;9.90;72.70
29093;DHT22;16167;48.768;14.984;2023-03-13T08:37:51;9.90;68.50
29093;DHT22;16167;48.768;14.984;2023-03-13T08:40:21;10.00;67.40
29093;DHT22;16167;48.768;14.984;2023-03-13T08:42:49;10.10;67.20
29093;DHT22;16167;48.768;14.984;2023-03-13T08:45:16;10.20;69.70
29093;DHT22;16167;48.768;14.984;2023-03-13T08:47:44;10.30;70.90
29093;DHT22;16167;48.768;14.984;2023-03-13T08:50:12;10.50;71.50
29093;DHT22;16167;48.768;14.984;2023-03-13T08:52:42;10.70;75.90
29093;DHT22;16167;48.768;14.984;2023-03-13T08:55:10;10.70;77.10
29093;DHT22;16167;48.768;14.984;2023-03-13T08:57:40;10.80;82.80
29093;DHT22;16167;48.768;14.984;2023-03-13T09:00:08;10.80;86.10
29093;DHT22;16167;48.768;14.984;2023-03-13T09:02:36;10.90;87.00
29093;DHT22;16167;48.768;14.984;2023-03-13T09:05:05;11.00;86.20
29093;DHT22;16167;48.768;14.984;2023-03-13T09:07:33;11.10;86.10
29093;DHT22;16167;48.768;14.984;2023-03-13T09:10:00;11.20;86.30
29093;DHT22;16167;48.768;14.984;2023-03-13T09:12:28;11.40;86.70
29093;DHT22;16167;48.768;14.984;2023-03-13T09:14:58;11.50;86.50
29093;DHT22;16167;48.768;14.984;2023-03-13T09:17:26;11.70;86.30
29093;DHT22;16167;48.768;14.984;2023-03-13T09:19:54;11.80;87.30
29093;DHT22;16167;48.768;14.984;2023-03-13T09:22:26;11.80;86.30
29093;DHT22;16167;48.768;14.984;2023-03-13T09:24:54;11.90;86.40
29093;DHT22;16167;48.768;14.984;2023-03-13T09:27:22;11.90;85.70
29093;DHT22;16167;48.768;14.984;2023-03-13T09:29:50;12.00;86.10
29093;DHT22;16167;48.768;14.984;2023-03-13T09:32:19;12.00;86.70
29093;DHT22;16167;48.768;14.984;2023-03-13T09:34:47;12.10;84.10
29093;DHT22;16167;48.768;14.984;2023-03-13T09:37:15;12.10;82.10
29093;DHT22;16167;48.768;14.984;2023-03-13T09:39:43;12.20;82.20
29093;DHT22;16167;48.768;14.984;2023-03-13T09:42:12;12.30;82.00
29093;DHT22;16167;48.768;14.984;2023-03-13T09:44:42;12.40;79.40
29093;DHT22;16167;48.768;14.984;2023-03-13T09:47:12;12.40;78.00
29093;DHT22;16167;48.768;14.984;2023-03-13T09:49:44;12.60;78.40
29093;DHT22;16167;48.768;14.984;2023-03-13T09:52:17;12.60;79.40
29093;DHT22;16167;48.768;14.984;2023-03-13T09:54:47;12.60;78.00
29093;DHT22;16167;48.768;14.984;2023-03-13T09:57:19;12.60;78.90
29093;DHT22;16167;48.768;14.984;2023-03-13T09:59:50;12.50;78.90
29093;DHT22;16167;48.768;14.984;2023-03-13T10:02:22;12.70;78.90
29093;DHT22;16167;48.768;14.984;2023-03-13T10:04:55;12.80;78.60
29093;DHT22;16167;48.768;14.984;2023-03-13T10:07:24;12.90;79.00
29093;DHT22;16167;48.768;14.984;2023-03-13T10:09:52;12.90;78.40
29093;DHT22;16167;48.768;14.984;2023-03-13T10:12:20;13.00;78.50
29093;DHT22;16167;48.768;14.984;2023-03-13T10:14:53;13.00;79.70
29093;DHT22;16167;48.768;14.984;2023-03-13T10:17:28;13.10;79.90
29093;DHT22;16167;48.768;14.984;2023-03-13T10:20:00;13.00;79.40
29093;DHT22;16167;48.768;14.984;2023-03-13T10:22:34;13.10;80.20
29093;DHT22;16167;48.768;14.984;2023-03-13T10:25:03;13.10;80.30
29093;DHT22;16167;48.768;14.984;2023-03-13T10:27:41;13.10;78.80
29093;DHT22;16167;48.768;14.984;2023-03-13T10:30:11;13.20;79.80
29093;DHT22;16167;48.768;14.984;2023-03-13T10:32:46;13.20;80.60
29093;DHT22;16167;48.768;14.984;2023-03-13T10:35:20;13.00;81.60
29093;DHT22;16167;48.768;14.984;2023-03-13T10:37:48;12.90;82.30
29093;DHT22;16167;48.768;14.984;2023-03-13T10:40:20;12.90;84.00
29093;DHT22;16167;48.768;14.984;2023-03-13T10:42:49;12.80;84.60
29093;DHT22;16167;48.768;14.984;2023-03-13T10:45:18;12.70;85.20
29093;DHT22;16167;48.768;14.984;2023-03-13T10:47:53;12.70;85.70
29093;DHT22;16167;48.768;14.984;2023-03-13T10:50:23;12.50;86.70
29093;DHT22;16167;48.768;14.984;2023-03-13T10:52:52;12.50;88.40
29093;DHT22;16167;48.768;14.984;2023-03-13T10:55:21;12.40;88.80
29093;DHT22;16167;48.768;14.984;2023-03-13T10:57:54;12.40;90.20
29093;DHT22;16167;48.768;14.984;2023-03-13T11:00:27;12.40;89.80
29093;DHT22;16167;48.768;14.984;2023-03-13T11:02:55;12.50;84.80
29093;DHT22;16167;48.768;14.984;2023-03-13T11:05:32;12.60;85.10
29093;DHT22;16167;48.768;14.984;2023-03-13T11:08:10;12.70;85.50
29093;DHT22;16167;48.768;14.984;2023-03-13T11:10:38;12.80;86.20
29093;DHT22;16167;48.768;14.984;2023-03-13T11:13:25;13.00;89.10
29093;DHT22;16167;48.768;14.984;2023-03-13T11:16:09;13.10;89.10
29093;DHT22;16167;48.768;14.984;2023-03-13T11:18:39;13.40;88.60
29093;DHT22;16167;48.768;14.984;2023-03-13T11:21:12;13.60;88.90
29093;DHT22;16167;48.768;14.984;2023-03-13T11:23:44;13.90;89.00
29093;DHT22;16167;48.768;14.984;2023-03-13T11:26:15;14.00;87.80
29093;DHT22;16167;48.768;14.984;2023-03-13T11:28:48;14.10;87.80
29093;DHT22;16167;48.768;14.984;2023-03-13T11:31:18;14.20;88.10
29093;DHT22;16167;48.768;14.984;2023-03-13T11:33:47;14.30;87.80
29093;DHT22;16167;48.768;14.984;2023-03-13T11:36:27;14.40;86.00
29093;DHT22;16167;48.768;14.984;2023-03-13T11:38:59;14.60;86.20
29093;DHT22;16167;48.768;14.984;2023-03-13T11:41:31;14.70;86.60
29093;DHT22;16167;48.768;14.984;2023-03-13T11:44:08;14.80;85.60
29093;DHT22;16167;48.768;14.984;2023-03-13T11:46:42;14.80;84.50
29093;DHT22;16167;48.768;14.984;2023-03-13T11:49:16;14.90;83.10
29093;DHT22;16167;48.768;14.984;2023-03-13T11:51:52;15.20;83.90
29093;DHT22;16167;48.768;14.984;2023-03-13T11:54:28;15.80;82.90
29093;DHT22;16167;48.768;14.984;2023-03-13T11:56:59;16.20;78.90
29093;DHT22;16167;48.768;14.984;2023-03-13T11:59:31;16.40;78.40
29093;DHT22;16167;48.768;14.984;2023-03-13T12:02:04;16.20;75.40
29093;DHT22;16167;48.768;14.984;2023-03-13T12:04:34;16.20;76.70
29093;DHT22;16167;48.768;14.984;2023-03-13T12:07:05;16.00;75.50
29093;DHT22;16167;48.768;14.984;2023-03-13T12:09:38;16.10;76.60
29093;DHT22;16167;48.768;14.984;2023-03-13T12:12:11;16.20;76.60
29093;DHT22;16167;48.768;14.984;2023-03-13T12:14:42;16.40;76.40
29093;DHT22;16167;48.768;14.984;2023-03-13T12:17:11;16.70;76.90
29093;DHT22;16167;48.768;14.984;2023-03-13T12:19:42;16.80;75.60
29093;DHT22;16167;48.768;14.984;2023-03-13T12:22:16;16.70;74.30
29093;DHT22;16167;48.768;14.984;2023-03-13T12:24:47;16.60;74.30
29093;DHT22;16167;48.768;14.984;2023-03-13T12:27:17;16.60;75.10
29093;DHT22;16167;48.768;14.984;2023-03-13T12:29:47;16.60;73.60
29093;DHT22;16167;48.768;14.984;2023-03-13T12:32:19;16.90;77.00
29093;DHT22;16167;48.768;14.984;2023-03-13T12:34:51;17.00;73.70
29093;DHT22;16167;48.768;14.984;2023-03-13T12:37:25;17.20;73.90
29093;DHT22;16167;48.768;14.984;2023-03-13T12:39:58;17.30;72.20
29093;DHT22;16167;48.768;14.984;2023-03-13T12:42:33;17.60;71.50
29093;DHT22;16167;48.768;14.984;2023-03-13T12:45:04;17.90;73.10
29093;DHT22;16167;48.768;14.984;2023-03-13T12:47:34;17.70;70.60
29093;DHT22;16167;48.768;14.984;2023-03-13T12:50:11;17.80;70.70
29093;DHT22;16167;48.768;14.984;2023-03-13T12:52:46;17.60;69.30
29093;DHT22;16167;48.768;14.984;2023-03-13T12:55:28;17.60;70.50
29093;DHT22;16167;48.768;14.984;2023-03-13T13:00:46;17.10;71.10
29093;DHT22;16167;48.768;14.984;2023-03-13T13:03:23;17.10;72.10
29093;DHT22;16167;48.768;14.984;2023-03-13T13:06:04;17.10;72.50
29093;DHT22;16167;48.768;14.984;2023-03-13T13:08:35;16.80;70.80
29093;DHT22;16167;48.768;14.984;2023-03-13T13:13:55;16.80;73.00
29093;DHT22;16167;48.768;14.984;2023-03-13T13:16:23;16.70;72.30
29093;DHT22;16167;48.768;14.984;2023-03-13T13:18:52;16.70;72.20
29093;DHT22;16167;48.768;14.984;2023-03-13T13:21:21;16.80;72.60
29093;DHT22;16167;48.768;14.984;2023-03-13T13:23:53;16.80;72.80
29093;DHT22;16167;48.768;14.984;2023-03-13T13:32:00;16.80;72.00
29093;DHT22;16167;48.768;14.984;2023-03-13T13:37:23;16.80;73.20
29093;DHT22;16167;48.768;14.984;2023-03-13T13:39:55;16.60;72.80
29093;DHT22;16167;48.768;14.984;2023-03-13T13:42:37;16.50;73.10
29093;DHT22;16167;48.768;14.984;2023-03-13T13:45:19;16.50;73.70
29093;DHT22;16167;48.768;14.984;2023-03-13T13:47:48;16.40;74.10
29093;DHT22;16167;48.768;14.984;2023-03-13T13:50:18;16.30;72.90
29093;DHT22;16167;48.768;14.984;2023-03-13T13:52:46;16.30;73.30
29093;DHT22;16167;48.768;14.984;2023-03-13T13:57:59;16.00;71.70
29093;DHT22;16167;48.768;14.984;2023-03-13T14:00:34;16.00;72.90
29093;DHT22;16167;48.768;14.984;2023-03-13T14:03:10;16.00;73.40
29093;DHT22;16167;48.768;14.984;2023-03-13T14:05:43;15.80;73.40
29093;DHT22;16167;48.768;14.984;2023-03-13T14:08:14;15.80;74.00
29093;DHT22;16167;48.768;14.984;2023-03-13T14:10:43;15.60;73.50
29093;DHT22;16167;48.768;14.984;2023-03-13T14:13:15;15.60;73.00
29093;DHT22;16167;48.768;14.984;2023-03-13T14:15:44;15.60;72.10
29093;DHT22;16167;48.768;14.984;2023-03-13T14:18:15;15.60;72.00
29093;DHT22;16167;48.768;14.984;2023-03-13T14:20:55;15.70;72.80
29093;DHT22;16167;48.768;14.984;2023-03-13T14:23:36;15.80;71.40
29093;DHT22;16167;48.768;14.984;2023-03-13T14:26:09;15.90;71.50
29093;DHT22;16167;48.768;14.984;2023-03-13T14:28:39;16.00;71.60
29093;DHT22;16167;48.768;14.984;2023-03-13T14:31:08;16.10;70.80
29093;DHT22;16167;48.768;14.984;2023-03-13T14:33:37;16.10;71.30
29093;DHT22;16167;48.768;14.984;2023-03-13T14:36:05;16.10;70.30
29093;DHT22;16167;48.768;14.984;2023-03-13T14:38:33;16.10;70.10
29093;DHT22;16167;48.768;14.984;2023-03-13T14:41:01;16.00;71.00
29093;DHT22;16167;48.768;14.984;2023-03-13T14:43:31;15.90;70.90
29093;DHT22;16167;48.768;14.984;2023-03-13T14:46:10;15.90;71.50
29093;DHT22;16167;48.768;14.984;2023-03-13T14:48:39;16.00;71.10
29093;DHT22;16167;48.768;14.984;2023-03-13T14:51:08;16.00;68.80
29093;DHT22;16167;48.768;14.984;2023-03-13T14:53:51;16.10;69.00
29093;DHT22;16167;48.768;14.984;2023-03-13T14:56:19;16.00;68.20
29093;DHT22;16167;48.768;14.984;2023-03-13T14:58:47;16.00;67.70
29093;DHT22;16167;48.768;14.984;2023-03-13T15:01:22;16.00;67.10
29093;DHT22;16167;48.768;14.984;2023-03-13T15:03:50;15.90;67.30
29093;DHT22;16167;48.768;14.984;2023-03-13T15:06:19;15.80;67.60
29093;DHT22;16167;48.768;14.984;2023-03-13T15:08:48;15.70;65.90
29093;DHT22;16167;48.768;14.984;2023-03-13T15:11:21;15.70;67.10
29093;DHT22;16167;48.768;14.984;2023-03-13T15:13:52;15.50;68.00
29093;DHT22;16167;48.768;14.984;2023-03-13T15:16:22;15.50;65.70
29093;DHT22;16167;48.768;14.984;2023-03-13T15:18:50;15.50;66.30
29093;DHT22;16167;48.768;14.984;2023-03-13T15:21:19;15.40;65.10
29093;DHT22;16167;48.768;14.984;2023-03-13T15:23:49;15.50;65.30
29093;DHT22;16167;48.768;14.984;2023-03-13T15:26:17;15.50;65.40
29093;DHT22;16167;48.768;14.984;2023-03-13T15:28:45;15.50;65.50
29093;DHT22;16167;48.768;14.984;2023-03-13T15:31:13;15.50;64.80
29093;DHT22;16167;48.768;14.984;2023-03-13T15:33:43;15.60;65.40
29093;DHT22;16167;48.768;14.984;2023-03-13T15:36:11;15.70;64.70
29093;DHT22;16167;48.768;14.984;2023-03-13T15:38:39;15.70;64.90
29093;DHT22;16167;48.768;14.984;2023-03-13T15:41:06;15.80;65.20
29093;DHT22;16167;48.768;14.984;2023-03-13T15:43:35;15.80;63.40
29093;DHT22;16167;48.768;14.984;2023-03-13T15:46:05;15.80;65.80
29093;DHT22;16167;48.768;14.984;2023-03-13T15:48:33;15.70;64.10
29093;DHT22;16167;48.768;14.984;2023-03-13T15:51:05;15.70;63.90
29093;DHT22;16167;48.768;14.984;2023-03-13T15:53:33;15.60;63.70
29093;DHT22;16167;48.768;14.984;2023-03-13T15:56:02;15.50;62.50
29093;DHT22;16167;48.768;14.984;2023-03-13T15:58:30;15.40;62.80